Juneau International Airport Juneau US
ICAO: PAJN
IATA: JNU
Category: Medium
Scheduled Services:

Elevation: 21 ft
TransAlt. 18000 ft.

Airport Communications:
ATIS:135.2
TWEB:114
ANCHORAGE CNTR:133.9
CTAF:118.7
RDO:122.2
GND:121.9
RDO:122.15
NAT GD OPS:124.65
TWR:118.7
UNICOM:122.95

PAJN Zoom In..

Runways:

(A) RW 08 length 8457 ft width 150 ft
---- / hdg 85

(B) RW 26 length 8457 ft width 150 ft
---- / hdg 265

Location; PAJN
Day. 11 / Time. 11.53 Zulu
* Altimeter: 30.02
* Temperature: 11° c. 51.8°f.
* Wind from: 080° Speed 03 kn.
Dewpoint: 09° c.
Visibility: 10 Statute Miles.
Clouds: Few 300 ft.
Clouds: Overcast 3300 ft.

PAJN 111153Z 08003KT 10SM FEW003 OVC033 11/09 A3002 RMK AO2 SLP165 70041 T01060094 10111 20106 58002

Going to: --> -->


Wind From 080°
Speed 03 kn.

 
 
jpsmedia worldairports.se 2020   terms of use